Latest Weather Observations for Norfolk Island

IDN60801

Issued at 11:53 pm EST Friday 16 April 2021 (issued every 10 minutes, with the page automatically refreshed every 10 minutes)

About weather observations | Map of weather stations | Latest weather observations for NSW | Other Formats
Station Details ID: 200288 Name: NORFOLK ISLAND AERO Lat: -29.04 Lon: 167.94 Height: 111.73 m
Data from the previous 72 hours. | See also: Recent months at Norfolk Island

Observations are collected in the New South Wales time zone (Eastern Standard Time) which includes daylight savings in the summer period. Therefore 'Rain since 9am' totals and other values are based on the New South Wales time zone, which may differ from local time.

Date/Time
EST
Temp
°C
App
Temp
°C
Dew
Point
°C
Rel
Hum
%
Delta-T
°C
Wind Press
QNH
hPa
Press
MSL
hPa
Rain since
9am
mm
Dir  Spd
km/h
Gust
km/h
Spd
kts
Gust
kts
16/11:30pm 16.7 15.7 12.3 75 2.4 SSW 9 9 5 5 1018.0 1017.6 0.0
16/11:00pm 17.4 16.5 12.5 73 2.7 SW 9 11 5 6 1018.0 1017.6 0.0
16/10:30pm 18.5 17.4 13.1 71 3.1 SW 11 15 6 8 1018.2 1017.8 0.0
16/10:00pm 18.5 17.8 13.1 71 3.1 SW 9 13 5 7 1018.3 1017.9 0.0
16/09:30pm 18.6 17.9 13.2 71 3.1 SW 9 13 5 7 1018.5 1018.1 0.0
16/09:00pm 18.7 18.1 13.6 72 2.9 SSW 9 11 5 6 1018.6 1018.2 0.0
16/08:30pm 18.9 18.8 14.0 73 2.8 SSW 7 9 4 5 1018.6 1018.2 0.0
16/08:00pm 19.4 19.0 14.0 71 3.1 SSW 9 13 5 7 1018.6 1018.2 0.0
16/07:30pm 18.9 20.2 14.0 73 2.8 CALM 0 0 0 0 1018.4 1018.0 0.0
16/07:00pm 18.6 19.8 13.7 73 2.8 CALM 0 0 0 0 1018.3 1017.9 0.0
16/06:30pm 18.1 19.2 13.4 74 2.7 CALM 0 0 0 0 1018.0 1017.6 0.0
16/06:00pm 18.1 19.1 13.2 73 2.8 CALM 0 0 0 0 1017.9 1017.5 0.0
16/05:30pm 18.5 18.3 13.1 71 3.1 SE 6 7 3 4 1017.6 1017.2 0.0
16/05:00pm 19.1 18.9 13.1 68 3.4 SSE 6 7 3 4 1017.2 1016.8 0.0
16/04:30pm 19.6 18.9 13.3 67 3.6 S 9 11 5 6 1017.2 1016.8 0.0
16/04:00pm 20.6 19.9 13.3 63 4.2 SSE 9 11 5 6 1016.9 1016.5 0.0
16/03:30pm 21.2 20.5 13.1 60 4.6 SE 9 11 5 6 1016.5 1016.1 0.0
16/03:00pm 21.2 21.2 13.6 62 4.4 S 6 11 3 6 1016.4 1016.0 0.0
16/02:30pm 22.1 22.3 14.2 61 4.6 SSE 6 11 3 6 1016.3 1015.9 0.0
16/02:00pm 21.5 21.0 13.7 61 4.5 WSW 9 13 5 7 1016.2 1015.8 0.0
16/01:30pm 22.4 21.0 13.5 57 5.2 W 13 19 7 10 1016.3 1015.9 0.0
16/01:00pm 22.2 20.8 13.3 57 5.1 WSW 13 15 7 8 1016.3 1015.9 0.0
16/12:30pm 22.5 21.0 13.0 55 5.5 WSW 13 19 7 10 1016.6 1016.2 0.0
16/12:00pm 22.2 21.4 13.0 56 5.3 WSW 9 17 5 9 1017.0 1016.6 0.0
16/11:30am 22.5 20.6 11.9 51 6.0 SW 13 17 7 9 1016.9 1016.5 0.0
16/11:00am 21.6 20.2 12.2 55 5.3 SW 11 17 6 9 1017.4 1017.0 0.0
16/10:30am 21.7 20.0 11.1 51 5.9 SW 11 15 6 8 1017.8 1017.4 0.0
16/10:00am 21.9 20.9 12.2 54 5.5 S 9 13 5 7 1018.0 1017.6 0.0
16/09:30am 21.6 20.9 11.3 52 5.7 NW 6 9 3 5 1017.9 1017.5 0.0
16/09:00am 21.3 21.0 12.7 58 4.9 SSE 6 11 3 6 1018.1 1017.7 0.0
16/08:30am 21.9 21.5 13.0 57 5.1 NNE 7 11 4 6 1018.2 1017.8 0.0
16/08:00am 20.7 20.0 13.2 62 4.3 ESE 9 11 5 6 1018.2 1017.8 0.0
16/07:30am 20.8 19.9 13.7 64 4.1 ESE 11 13 6 7 1018.1 1017.7 0.0
16/07:00am 20.4 20.5 13.8 66 3.8 ENE 6 7 3 4 1018.1 1017.7 0.0
16/06:30am 19.9 21.1 13.8 68 3.5 CALM 0 0 0 0 1017.8 1017.4 0.0
16/06:00am 19.1 20.3 13.9 72 3.0 CALM 0 0 0 0 1017.7 1017.3 0.0
16/05:30am 18.9 19.9 13.1 69 3.3 CALM 0 0 0 0 1017.5 1017.1 0.0
16/05:00am 18.8 19.5 12.3 66 3.6 CALM 0 0 0 0 1017.2 1016.8 0.0
16/04:30am 18.6 19.4 12.6 68 3.4 CALM 0 0 0 0 1017.0 1016.6 0.0
16/04:00am 18.4 19.3 12.8 70 3.1 CALM 0 0 0 0 1016.8 1016.4 0.0
16/03:30am 18.6 19.5 12.8 69 3.3 CALM 0 0 0 0 1016.7 1016.3 0.0
16/03:00am 18.0 18.8 12.7 71 3.0 CALM 0 0 0 0 1016.7 1016.3 0.0
16/02:30am 18.6 18.3 12.6 68 3.4 NE 6 6 3 3 1016.3 1015.9 0.0
16/02:00am 18.2 17.9 12.6 70 3.1 NE 6 6 3 3 1016.2 1015.8 0.0
16/01:30am 18.2 17.8 13.1 72 2.9 NE 7 9 4 5 1016.4 1016.0 0.0
16/01:00am 17.7 17.2 12.8 73 2.7 NE 7 9 4 5 1016.4 1016.0 0.0
16/12:30am 18.1 17.7 13.0 72 2.9 NE 7 9 4 5 1016.7 1016.3 0.0
16/12:00am 17.8 17.3 12.7 72 2.9 NE 7 7 4 4 1016.8 1016.4 0.0
 
Date/Time
EST
Temp
°C
App
Temp
°C
Dew
Point
°C
Rel
Hum
%
Delta-T
°C
Wind Press
QNH
hPa
Press
MSL
hPa
Rain since
9am
mm
Dir  Spd
km/h
Gust
km/h
Spd
kts
Gust
kts
15/11:30pm 17.9 17.5 13.0 73 2.8 NE 7 9 4 5 1017.1 1016.7 0.0
15/11:00pm 17.2 16.6 12.3 73 2.7 ENE 7 7 4 4 1017.1 1016.7 0.0
15/10:30pm 17.1 17.5 12.6 75 2.5 ENE 2 6 1 3 1017.3 1016.9 0.0
15/10:00pm 17.0 16.4 12.3 74 2.6 ENE 7 9 4 5 1017.2 1016.8 0.0
15/09:30pm 17.3 16.7 12.2 72 2.8 E 7 11 4 6 1017.3 1016.9 0.0
15/09:00pm 18.1 17.8 12.8 71 3.0 ESE 6 7 3 4 1017.5 1017.1 0.0
15/08:30pm 18.2 17.4 12.9 71 3.0 SE 9 11 5 6 1017.7 1017.3 0.0
15/08:00pm 18.1 17.5 12.3 69 3.2 ESE 7 9 4 5 1017.8 1017.4 0.0
15/07:30pm 18.3 19.1 12.5 69 3.2 CALM 0 0 0 0 1017.6 1017.2 0.0
15/07:00pm 18.6 18.0 12.4 67 3.5 ESE 7 9 4 5 1017.3 1016.9 0.0
15/06:30pm 19.0 18.4 12.3 65 3.8 ESE 7 11 4 6 1017.2 1016.8 0.0
15/06:00pm 19.1 18.5 12.4 65 3.8 ESE 7 9 4 5 1016.8 1016.4 0.0
15/05:30pm 19.5 18.9 12.3 63 4.0 ESE 7 11 4 6 1016.7 1016.3 0.0
15/05:00pm 19.7 19.2 12.5 63 4.1 SE 7 13 4 7 1016.6 1016.2 0.0
15/04:30pm 19.9 18.9 12.4 62 4.2 SSE 9 13 5 7 1016.4 1016.0 0.0
15/04:00pm 20.1 19.3 12.8 63 4.1 SSE 9 15 5 8 1016.4 1016.0 0.0
15/03:30pm 20.5 19.2 12.5 60 4.5 S 11 13 6 7 1016.3 1015.9 0.0
15/03:00pm 20.6 19.2 12.3 59 4.7 S 11 17 6 9 1016.1 1015.7 0.0
15/02:30pm 21.0 20.0 12.2 57 5.0 S 9 15 5 8 1016.2 1015.8 0.0
15/02:00pm 21.1 20.0 12.0 56 5.1 S 9 13 5 7 1016.2 1015.8 0.0
15/01:30pm 21.5 19.9 11.5 53 5.6 SSE 11 13 6 7 1015.9 1015.5 0.0
15/01:00pm 21.0 19.5 11.9 56 5.1 SSE 11 17 6 9 1016.0 1015.6 0.0
15/12:30pm 21.1 19.2 11.7 55 5.3 SSE 13 17 7 9 1015.9 1015.5 0.0
15/12:00pm 21.2 19.5 12.6 58 4.9 SE 13 17 7 9 1016.2 1015.8 0.0
15/11:30am 21.1 19.4 12.3 57 5.0 ESE 13 20 7 11 1016.3 1015.9 0.0
15/11:00am 21.7 19.8 11.7 53 5.6 SE 13 19 7 10 1016.6 1016.2 0.0
15/10:30am 21.2 19.4 12.1 56 5.1 SE 13 20 7 11 1016.8 1016.4 0.0
15/10:00am 21.4 19.7 12.3 56 5.1 SE 13 20 7 11 1017.0 1016.6 0.0
15/09:30am 21.3 19.7 12.7 58 4.9 SE 13 17 7 9 1017.4 1017.0 0.0
15/09:00am 21.3 20.2 13.0 59 4.8 SE 11 15 6 8 1017.6 1017.2 0.0
15/08:30am 21.0 19.5 11.9 56 5.1 S 11 15 6 8 1017.7 1017.3 0.0
15/08:00am 20.7 19.8 12.7 60 4.5 S 9 13 5 7 1017.9 1017.5 0.0
15/07:30am 20.2 18.7 13.2 64 4.0 SSE 13 17 7 9 1017.7 1017.3 0.0
15/07:00am 20.0 19.5 13.7 67 3.6 SE 9 15 5 8 1017.5 1017.1 0.0
15/06:30am 19.5 19.5 14.3 72 3.0 ESE 7 11 4 6 1017.4 1017.0 0.0
15/06:00am 19.2 19.8 14.2 73 2.9 E 4 7 2 4 1017.2 1016.8 0.0
15/05:30am 19.1 19.1 14.1 73 2.9 ESE 7 13 4 7 1016.9 1016.5 0.0
15/05:00am 18.7 18.7 14.2 75 2.6 ESE 7 9 4 5 1016.4 1016.0 0.0
15/04:30am 18.0 18.2 14.3 79 2.1 E 6 7 3 4 1016.0 1015.6 0.0
15/04:00am 17.5 17.4 13.8 79 2.1 ESE 7 11 4 6 1015.8 1015.4 0.0
15/03:30am 18.0 19.2 13.9 77 2.4 CALM 0 6 0 3 1015.5 1015.1 0.0
15/03:00am 18.2 18.1 13.9 76 2.5 E 7 7 4 4 1015.6 1015.2 0.0
15/02:30am 18.6 18.5 13.9 74 2.7 SSE 7 9 4 5 1015.5 1015.1 0.0
15/02:00am 18.2 17.7 13.7 75 2.6 S 9 9 5 5 1015.8 1015.4 0.0
15/01:30am 18.5 18.0 13.8 74 2.7 SSW 9 13 5 7 1016.1 1015.7 0.0
15/01:00am 18.5 17.5 13.4 72 2.9 S 11 15 6 8 1016.1 1015.7 0.0
15/12:30am 19.3 18.2 14.3 73 2.9 S 13 17 7 9 1016.6 1016.2 0.0
15/12:00am 19.3 18.5 14.1 72 3.0 S 11 17 6 9 1016.8 1016.4 0.0
 
Date/Time
EST
Temp
°C
App
Temp
°C
Dew
Point
°C
Rel
Hum
%
Delta-T
°C
Wind Press
QNH
hPa
Press
MSL
hPa
Rain since
9am
mm
Dir  Spd
km/h
Gust
km/h
Spd
kts
Gust
kts
14/11:30pm 19.3 19.1 13.5 69 3.3 SW 7 9 4 5 1016.9 1016.5 0.0
14/11:00pm 19.7 18.1 12.9 65 3.9 SSW 13 24 7 13 1016.9 1016.5 0.0
14/10:30pm 19.8 18.2 12.8 64 4.0 SSW 13 19 7 10 1017.0 1016.6 0.0
14/10:00pm 19.2 17.2 12.7 66 3.7 SSW 15 22 8 12 1017.0 1016.6 0.0
14/09:30pm 19.3 17.6 12.3 64 3.9 SSW 13 20 7 11 1017.3 1016.9 0.0
14/09:00pm 19.6 17.4 12.1 62 4.2 S 15 24 8 13 1017.2 1016.8 0.0
14/08:30pm 19.7 18.3 13.4 67 3.6 SSW 13 19 7 10 1017.2 1016.8 0.0
14/08:00pm 19.2 17.1 12.5 65 3.8 S 15 22 8 12 1017.1 1016.7 0.0
14/07:30pm 19.4 17.5 13.1 67 3.6 S 15 24 8 13 1016.9 1016.5 0.0
14/07:00pm 19.9 17.7 13.4 66 3.7 S 17 24 9 13 1016.7 1016.3 0.0
14/06:30pm 19.5 18.2 13.7 69 3.3 S 13 22 7 12 1016.4 1016.0 0.0
14/06:00pm 19.8 17.7 13.5 67 3.6 SSW 17 22 9 12 1016.2 1015.8 0.0
14/05:30pm 19.4 17.9 13.1 67 3.6 SSW 13 28 7 15 1016.1 1015.7 0.0
14/05:00pm 19.5 17.1 12.8 65 3.8 SSW 17 28 9 15 1015.9 1015.5 0.0
14/04:30pm 19.7 18.2 13.2 66 3.7 SSW 13 28 7 15 1015.7 1015.3 0.0
14/04:00pm 20.1 18.1 13.8 67 3.6 SSW 17 26 9 14 1015.5 1015.1 0.0
14/03:30pm 20.7 18.4 12.9 61 4.5 SW 17 30 9 16 1015.4 1015.0 0.0
14/03:00pm 21.2 18.7 13.4 61 4.5 SSW 19 26 10 14 1015.4 1015.0 0.0
14/02:30pm 21.4 18.8 13.8 62 4.4 SSW 20 33 11 18 1015.3 1014.9 0.0
14/02:00pm 22.0 18.8 12.0 53 5.6 SSW 20 32 11 17 1015.2 1014.8 0.0
14/01:30pm 22.2 17.8 11.6 51 6.0 SSW 26 35 14 19 1015.3 1014.9 0.0
14/01:00pm 22.3 19.2 12.3 53 5.7 SSW 20 28 11 15 1015.3 1014.9 0.0
14/12:30pm 21.6 17.1 12.7 57 5.1 SW 28 35 15 19 1015.3 1014.9 0.0
14/12:00pm 21.5 18.2 12.9 58 4.9 SSW 22 37 12 20 1015.4 1015.0 0.0
14/11:30am 22.0 18.3 13.9 60 4.7 SW 26 35 14 19 1015.7 1015.3 0.0
14/11:00am 22.0 18.3 12.8 56 5.3 SW 24 32 13 17 1016.1 1015.7 0.0
14/10:30am 21.8 17.8 12.9 57 5.1 SW 26 35 14 19 1016.4 1016.0 0.0
14/10:00am 22.0 19.1 14.1 61 4.6 SSW 22 30 12 16 1016.7 1016.3 0.0
14/09:30am 20.9 18.7 13.4 62 4.3 SSW 17 24 9 13 1017.1 1016.7 0.0
14/09:00am 21.1 18.4 14.5 66 3.9 SW 22 30 12 16 1017.3 1016.9 0.0
14/08:30am 20.5 17.8 14.6 69 3.5 SW 22 33 12 18 1017.4 1017.0 0.0
14/08:00am 20.5 16.8 15.1 71 3.2 SW 28 37 15 20 1017.3 1016.9 0.0
14/07:30am 20.1 18.1 15.5 75 2.7 SW 20 32 11 17 1017.1 1016.7 0.0
14/07:00am 21.5 19.7 14.4 64 4.2 SW 17 22 9 12 1016.9 1016.5 0.0
14/06:30am 20.5 18.7 14.4 68 3.6 SW 17 20 9 11 1016.8 1016.4 0.0
14/06:00am 19.9 18.2 14.7 72 3.0 SW 17 26 9 14 1016.4 1016.0 0.0
14/05:30am 19.9 18.0 15.3 75 2.7 SW 19 30 10 16 1016.2 1015.8 0.0
14/05:00am 19.9 18.3 14.9 73 2.9 SW 17 28 9 15 1015.9 1015.5 0.0
14/04:30am 19.7 17.5 13.4 67 3.6 SW 17 26 9 14 1015.6 1015.2 0.0
14/04:00am 19.5 17.1 13.7 69 3.3 WSW 19 24 10 13 1015.5 1015.1 0.0
14/03:30am 19.5 17.5 13.9 70 3.2 SW 17 26 9 14 1015.2 1014.8 0.0
14/03:00am 19.6 18.0 14.0 70 3.2 SW 15 22 8 12 1015.2 1014.8 0.0
14/02:30am 19.9 17.5 13.8 68 3.5 SW 19 26 10 14 1015.4 1015.0 0.0
14/02:00am 19.3 19.2 15.0 76 2.5 SW 9 15 5 8 1015.6 1015.2 0.0
14/01:30am 19.6 18.6 14.6 73 2.9 SW 13 15 7 8 1015.7 1015.3 0.0
14/01:00am 19.8 18.5 14.8 73 2.9 SW 15 19 8 10 1015.7 1015.3 0.0
14/12:30am 19.5 18.5 14.5 73 2.9 SW 13 17 7 9 1015.7 1015.3 0.0
14/12:00am 19.5 18.0 14.1 71 3.1 SW 15 20 8 11 1016.1 1015.7 0.0
 
Date/Time
EST
Temp
°C
App
Temp
°C
Dew
Point
°C
Rel
Hum
%
Delta-T
°C
Wind Press
QNH
hPa
Press
MSL
hPa
Rain since
9am
mm
Dir  Spd
km/h
Gust
km/h
Spd
kts
Gust
kts
13/11:30pm 19.4 18.2 14.0 71 3.1 SW 13 20 7 11 1016.3 1015.9 0.0
13/11:00pm 19.5 19.1 14.1 71 3.1 SSW 9 17 5 9 1016.4 1016.0 0.0
13/10:30pm 19.9 18.9 14.5 71 3.2 SSW 13 20 7 11 1016.5 1016.1 0.0

Other formats

Comma delimited format used in spreadsheet applications
http://www.bom.gov.au/fwo/IDN60801/IDN60801.94996.axf

JavaScript Object Notation format (JSON) in row-major order
http://www.bom.gov.au/fwo/IDN60801/IDN60801.94996.json

Data quality

Most of these data are generated automatically and are frequently updated. Quality checks on data are not normally performed. It is possible for incorrect values to appear. Refer to information at About Latest Weather Observations and please check the disclaimer before using these data.